createdAt,value
2023-04-26T00:01:36.759Z,11.28
2023-04-26T00:08:32.433Z,11.23
2023-04-26T00:10:59.234Z,11.15
2023-04-26T00:13:26.014Z,11.12
2023-04-26T00:15:52.780Z,11.09
2023-04-26T00:18:20.138Z,11.07
2023-04-26T00:20:46.857Z,11.04
2023-04-26T00:23:13.701Z,11.00
2023-04-26T00:25:40.479Z,10.97
2023-04-26T00:28:07.611Z,10.95
2023-04-26T00:30:37.053Z,10.94
2023-04-26T00:33:04.790Z,10.92
2023-04-26T00:35:31.727Z,10.91
2023-04-26T00:37:58.451Z,10.90
2023-04-26T00:40:25.204Z,10.87
2023-04-26T00:42:57.580Z,10.85
2023-04-26T00:45:24.336Z,10.83
2023-04-26T00:47:51.650Z,10.81
2023-04-26T00:50:19.021Z,10.80
2023-04-26T00:52:46.633Z,10.79
2023-04-26T00:55:13.455Z,10.78
2023-04-26T00:57:40.367Z,10.75
2023-04-26T01:00:07.839Z,10.72
2023-04-26T01:02:34.842Z,10.69
2023-04-26T01:05:01.711Z,10.67
2023-04-26T01:07:30.720Z,10.63
2023-04-26T01:09:57.805Z,10.60
2023-04-26T01:12:24.578Z,10.56
2023-04-26T01:14:51.679Z,10.52
2023-04-26T01:17:19.536Z,10.47
2023-04-26T01:19:47.553Z,10.43
2023-04-26T01:22:14.660Z,10.40
2023-04-26T01:24:43.557Z,10.37
2023-04-26T01:27:10.417Z,10.35
2023-04-26T01:29:37.266Z,10.33
2023-04-26T01:32:05.045Z,10.32
2023-04-26T01:34:34.085Z,10.30
2023-04-26T01:37:01.219Z,10.27
2023-04-26T01:39:28.668Z,10.25
2023-04-26T01:41:57.988Z,10.24
2023-04-26T01:44:24.851Z,10.24
2023-04-26T01:46:52.182Z,10.22
2023-04-26T01:49:18.969Z,10.22
2023-04-26T01:51:47.330Z,10.22
2023-04-26T01:54:14.090Z,10.23
2023-04-26T01:56:40.795Z,10.24
2023-04-26T01:59:07.593Z,10.25
2023-04-26T02:01:34.545Z,10.25
2023-04-26T02:04:01.368Z,10.27
2023-04-26T02:06:28.346Z,10.28
2023-04-26T02:08:56.490Z,10.29
2023-04-26T02:11:24.060Z,10.29
2023-04-26T02:13:52.813Z,10.28
2023-04-26T02:16:21.383Z,10.26
2023-04-26T02:18:49.230Z,10.22
2023-04-26T02:21:17.846Z,10.15
2023-04-26T02:23:44.837Z,10.07
2023-04-26T02:26:12.552Z,10.00
2023-04-26T02:28:39.338Z,9.97
2023-04-26T02:31:06.382Z,9.95
2023-04-26T02:33:33.384Z,9.93
2023-04-26T02:36:05.519Z,9.93
2023-04-26T02:38:34.494Z,9.91
2023-04-26T02:41:02.160Z,9.89
2023-04-26T02:43:29.477Z,9.84
2023-04-26T02:45:58.340Z,9.81
2023-04-26T02:48:25.366Z,9.79
2023-04-26T02:50:52.674Z,9.77
2023-04-26T02:53:19.581Z,9.76
2023-04-26T02:55:46.293Z,9.74
2023-04-26T02:58:13.062Z,9.72
2023-04-26T03:00:45.653Z,9.71
2023-04-26T03:03:12.776Z,9.70
2023-04-26T03:05:41.095Z,9.66
2023-04-26T03:08:08.605Z,9.64
2023-04-26T03:10:36.644Z,9.62
2023-04-26T03:13:06.766Z,9.60
2023-04-26T03:15:33.633Z,9.59
2023-04-26T03:18:00.573Z,9.59
2023-04-26T03:20:27.664Z,9.59
2023-04-26T03:22:55.187Z,9.59
2023-04-26T03:25:22.489Z,9.60
2023-04-26T03:27:49.347Z,9.59
2023-04-26T03:30:16.242Z,9.60
2023-04-26T03:32:44.620Z,9.60
2023-04-26T03:35:12.083Z,9.60
2023-04-26T03:37:39.334Z,9.61
2023-04-26T03:40:09.820Z,9.63
2023-04-26T03:42:37.097Z,9.64
2023-04-26T03:45:04.619Z,9.64
2023-04-26T03:47:31.769Z,9.65
2023-04-26T03:49:58.728Z,9.65
2023-04-26T03:52:25.505Z,9.65
2023-04-26T03:54:52.485Z,9.65
2023-04-26T03:57:19.346Z,9.65
2023-04-26T03:59:46.165Z,9.66
2023-04-26T04:02:13.343Z,9.66
2023-04-26T04:04:41.706Z,9.66
2023-04-26T04:07:09.090Z,9.66
2023-04-26T04:09:36.351Z,9.65
2023-04-26T04:12:03.371Z,9.64
2023-04-26T04:14:31.005Z,9.63
2023-04-26T04:16:58.982Z,9.63
2023-04-26T04:19:26.575Z,9.63
2023-04-26T04:21:53.378Z,9.63
2023-04-26T04:24:20.224Z,9.63
2023-04-26T04:26:47.237Z,9.62
2023-04-26T04:29:15.317Z,9.62
2023-04-26T04:31:43.395Z,9.63
2023-04-26T04:34:10.337Z,9.62
2023-04-26T04:36:40.111Z,9.63
2023-04-26T04:39:11.859Z,9.64
2023-04-26T04:41:39.588Z,9.65
2023-04-26T04:44:06.404Z,9.65
2023-04-26T04:46:33.349Z,9.66
2023-04-26T04:49:01.126Z,9.66
2023-04-26T04:51:28.255Z,9.68
2023-04-26T04:53:57.044Z,9.70
2023-04-26T04:56:25.480Z,9.72
2023-04-26T04:58:52.993Z,9.74
2023-04-26T05:01:21.505Z,9.76
2023-04-26T05:03:54.062Z,9.79
2023-04-26T05:06:21.930Z,9.82
2023-04-26T05:08:48.755Z,9.84
2023-04-26T05:11:16.479Z,9.88
2023-04-26T05:13:43.387Z,9.91
2023-04-26T05:16:10.637Z,9.95
2023-04-26T05:18:37.892Z,10.01
2023-04-26T05:21:05.138Z,10.05
2023-04-26T05:23:33.799Z,10.08
2023-04-26T05:26:07.173Z,10.13
2023-04-26T05:28:50.774Z,10.19
2023-04-26T05:31:37.984Z,10.26
2023-04-26T05:34:33.845Z,10.35
2023-04-26T05:37:01.402Z,10.44
2023-04-26T05:39:28.297Z,10.52
2023-04-26T05:41:55.220Z,10.57
2023-04-26T05:44:22.400Z,10.62
2023-04-26T05:46:49.543Z,10.66
2023-04-26T05:49:16.336Z,10.70
2023-04-26T05:51:43.427Z,10.75
2023-04-26T05:54:11.164Z,10.78
2023-04-26T05:56:38.616Z,10.79
2023-04-26T05:59:05.438Z,10.80
2023-04-26T06:01:33.997Z,10.80
2023-04-26T06:04:01.797Z,10.80
2023-04-26T06:06:33.403Z,10.82
2023-04-26T06:09:00.326Z,10.85
2023-04-26T06:11:27.625Z,10.90
2023-04-26T06:13:54.735Z,10.97
2023-04-26T06:16:22.103Z,11.04
2023-04-26T06:18:48.928Z,11.10
2023-04-26T06:21:15.895Z,11.18
2023-04-26T06:23:42.866Z,11.26
2023-04-26T06:26:09.710Z,11.36
2023-04-26T06:28:37.034Z,11.45
2023-04-26T06:31:03.884Z,11.52
2023-04-26T06:33:31.690Z,11.55
2023-04-26T06:35:58.536Z,11.59
2023-04-26T06:38:25.418Z,11.62
2023-04-26T06:40:52.348Z,11.66
2023-04-26T06:43:19.552Z,11.71
2023-04-26T06:46:02.877Z,11.78
2023-04-26T06:48:30.113Z,11.84
2023-04-26T06:50:56.973Z,11.89
2023-04-26T06:53:23.926Z,11.93
2023-04-26T06:55:52.728Z,11.95
2023-04-26T06:58:20.668Z,11.96
2023-04-26T07:00:48.080Z,11.99
2023-04-26T07:03:15.330Z,12.05
2023-04-26T07:05:42.273Z,12.13
2023-04-26T07:08:09.111Z,12.16
2023-04-26T07:10:36.235Z,12.20
2023-04-26T07:13:03.062Z,12.24
2023-04-26T07:15:30.671Z,12.30
2023-04-26T07:17:57.718Z,12.34
2023-04-26T07:20:24.520Z,12.40
2023-04-26T07:22:51.351Z,12.45
2023-04-26T07:25:18.389Z,12.53
2023-04-26T07:27:46.627Z,12.60
2023-04-26T07:30:13.546Z,12.67
2023-04-26T07:32:40.408Z,12.70
2023-04-26T07:35:08.106Z,12.74
2023-04-26T07:37:35.154Z,12.81
2023-04-26T07:40:01.943Z,12.88
2023-04-26T07:42:30.956Z,12.96
2023-04-26T07:44:57.717Z,13.07
2023-04-26T07:47:25.130Z,13.18
2023-04-26T07:49:55.246Z,13.24
2023-04-26T07:52:22.121Z,13.32
2023-04-26T07:54:49.001Z,13.40
2023-04-26T07:57:16.090Z,13.49
2023-04-26T07:59:42.959Z,13.59
2023-04-26T08:02:10.490Z,13.69
2023-04-26T08:04:37.894Z,13.79
2023-04-26T08:07:05.085Z,13.88
2023-04-26T08:09:32.445Z,13.99
2023-04-26T08:11:59.405Z,14.12
2023-04-26T08:14:26.673Z,14.28
2023-04-26T08:16:53.670Z,14.44
2023-04-26T08:19:21.008Z,14.53
2023-04-26T08:21:47.821Z,14.56
2023-04-26T08:24:14.645Z,14.49
2023-04-26T08:26:41.473Z,14.40
2023-04-26T08:29:08.422Z,14.33
2023-04-26T08:31:35.654Z,14.28
2023-04-26T08:34:02.585Z,14.20
2023-04-26T08:36:29.644Z,14.14
2023-04-26T08:38:57.504Z,14.14
2023-04-26T08:41:24.888Z,14.19
2023-04-26T08:43:52.280Z,14.26
2023-04-26T08:46:19.309Z,14.31
2023-04-26T08:48:49.328Z,14.27
2023-04-26T08:51:16.143Z,14.24
2023-04-26T08:53:42.876Z,14.28
2023-04-26T08:56:10.842Z,14.33
2023-04-26T08:58:37.970Z,14.38
2023-04-26T09:01:05.143Z,14.43
2023-04-26T09:03:32.682Z,14.56
2023-04-26T09:06:01.435Z,14.64
2023-04-26T09:08:31.042Z,14.69
2023-04-26T09:10:57.897Z,14.73
2023-04-26T09:13:29.858Z,14.78
2023-04-26T09:15:57.207Z,14.85
2023-04-26T09:18:24.152Z,14.94
2023-04-26T09:21:07.556Z,15.00
2023-04-26T09:23:34.761Z,15.04
2023-04-26T09:26:20.527Z,15.11
2023-04-26T09:28:47.544Z,15.15
2023-04-26T09:31:49.322Z,15.11
2023-04-26T09:34:16.698Z,15.03
2023-04-26T09:36:53.247Z,14.93
2023-04-26T09:39:33.407Z,14.81
2023-04-26T09:42:01.371Z,14.75
2023-04-26T09:44:28.663Z,14.77
2023-04-26T09:47:11.939Z,14.75
2023-04-26T09:49:50.238Z,14.66
2023-04-26T09:52:18.201Z,14.57
2023-04-26T09:54:51.722Z,14.51
2023-04-26T09:57:19.193Z,14.44
2023-04-26T09:59:47.056Z,14.38
2023-04-26T10:02:19.039Z,14.33
2023-04-26T10:04:48.627Z,14.29
2023-04-26T10:07:17.133Z,14.24
2023-04-26T10:09:44.152Z,14.23
2023-04-26T10:12:11.413Z,14.25
2023-04-26T10:14:38.470Z,14.23
2023-04-26T10:17:05.991Z,14.20
2023-04-26T10:19:34.135Z,14.20
2023-04-26T10:22:05.362Z,14.21
2023-04-26T10:24:33.388Z,14.19
2023-04-26T10:27:01.076Z,14.15
2023-04-26T10:29:53.901Z,14.14
2023-04-26T10:32:21.362Z,14.16
2023-04-26T10:35:15.150Z,14.19
2023-04-26T10:38:03.741Z,14.27
2023-04-26T10:40:38.617Z,14.38
2023-04-26T10:43:08.189Z,14.50
2023-04-26T10:45:35.558Z,14.57
2023-04-26T10:48:20.897Z,14.62
2023-04-26T10:51:07.879Z,14.69
2023-04-26T10:53:46.954Z,14.73
2023-04-26T10:56:22.968Z,14.77
2023-04-26T10:59:17.704Z,14.86
2023-04-26T11:01:53.511Z,14.93
2023-04-26T11:04:20.752Z,14.92
2023-04-26T11:06:49.062Z,14.90
2023-04-26T11:09:41.262Z,14.91
2023-04-26T11:12:12.081Z,14.94
2023-04-26T11:14:41.182Z,14.96
2023-04-26T11:17:08.662Z,15.00
2023-04-26T11:19:35.388Z,15.02
2023-04-26T11:22:06.063Z,15.00
2023-04-26T11:24:36.017Z,15.00
2023-04-26T11:27:11.134Z,15.04
2023-04-26T11:29:38.302Z,15.09
2023-04-26T11:32:05.409Z,15.15
2023-04-26T11:34:37.772Z,15.20
2023-04-26T11:37:05.557Z,15.19
2023-04-26T11:39:32.906Z,15.16
2023-04-26T11:42:09.943Z,15.15
2023-04-26T11:44:37.318Z,15.11
2023-04-26T11:47:05.180Z,15.04
2023-04-26T11:49:32.971Z,14.99
2023-04-26T11:51:59.818Z,14.97
2023-04-26T11:54:30.956Z,14.94
2023-04-26T11:56:57.840Z,14.92
2023-04-26T11:59:28.700Z,14.92
2023-04-26T12:02:01.191Z,14.90
2023-04-26T12:04:30.236Z,14.89
2023-04-26T12:06:57.639Z,14.87
2023-04-26T12:09:27.530Z,14.83
2023-04-26T12:12:01.795Z,14.78
2023-04-26T12:14:36.172Z,14.73
2023-04-26T12:17:05.445Z,14.68
2023-04-26T12:19:36.729Z,14.57
2023-04-26T12:22:07.129Z,14.36
2023-04-26T12:24:36.168Z,14.08
2023-04-26T12:27:04.010Z,13.84
2023-04-26T12:29:31.780Z,13.67
2023-04-26T12:31:59.528Z,13.54
2023-04-26T12:34:26.451Z,13.41
2023-04-26T12:36:53.188Z,13.28
2023-04-26T12:39:20.170Z,13.17
2023-04-26T12:41:47.017Z,13.06
2023-04-26T12:44:14.278Z,12.96
2023-04-26T12:46:41.270Z,12.86
2023-04-26T12:49:08.188Z,12.75
2023-04-26T12:51:35.391Z,12.66
2023-04-26T12:54:02.492Z,12.59
2023-04-26T12:56:29.541Z,12.54
2023-04-26T12:58:56.540Z,12.53
2023-04-26T13:01:23.332Z,12.54
2023-04-26T13:03:50.487Z,12.56
2023-04-26T13:06:17.668Z,12.59
2023-04-26T13:08:44.446Z,12.62
2023-04-26T13:11:11.734Z,12.65
2023-04-26T13:13:43.605Z,12.68
2023-04-26T13:16:12.982Z,12.69
2023-04-26T13:18:40.923Z,12.69
2023-04-26T13:21:07.985Z,12.71
2023-04-26T13:23:35.470Z,12.73
2023-04-26T13:26:02.252Z,12.74
2023-04-26T13:28:29.300Z,12.76
2023-04-26T13:30:56.229Z,12.80
2023-04-26T13:33:23.426Z,12.85
2023-04-26T13:35:50.363Z,12.92
2023-04-26T13:38:18.422Z,12.98
2023-04-26T13:40:45.924Z,13.03
2023-04-26T13:43:12.920Z,13.06
2023-04-26T13:45:39.735Z,13.09
2023-04-26T13:48:06.866Z,13.12
2023-04-26T13:50:35.704Z,13.11
2023-04-26T13:53:03.775Z,13.09
2023-04-26T13:55:30.819Z,13.05
2023-04-26T13:57:57.727Z,12.97
2023-04-26T14:00:24.635Z,12.88
2023-04-26T14:02:51.616Z,12.77
2023-04-26T14:05:18.674Z,12.66
2023-04-26T14:07:45.700Z,12.57
2023-04-26T14:10:12.772Z,12.51
2023-04-26T14:12:39.863Z,12.46
2023-04-26T14:15:07.251Z,12.42
2023-04-26T14:17:34.536Z,12.39
2023-04-26T14:20:01.509Z,12.36
2023-04-26T14:22:28.883Z,12.32
2023-04-26T14:24:56.005Z,12.30
2023-04-26T14:27:22.814Z,12.28
2023-04-26T14:29:49.772Z,12.27
2023-04-26T14:32:16.518Z,12.27
2023-04-26T14:34:43.334Z,12.27
2023-04-26T14:37:10.309Z,12.27
2023-04-26T14:39:37.406Z,12.23
2023-04-26T14:42:04.710Z,12.15
2023-04-26T14:44:31.524Z,12.09
2023-04-26T14:46:58.306Z,12.04
2023-04-26T14:49:25.263Z,12.00
2023-04-26T14:51:53.600Z,11.97
2023-04-26T14:54:20.852Z,11.92
2023-04-26T14:56:47.969Z,11.90
2023-04-26T14:59:14.679Z,11.89
2023-04-26T15:01:41.538Z,11.89
2023-04-26T15:04:08.436Z,11.88
2023-04-26T15:06:35.585Z,11.88
2023-04-26T15:09:03.314Z,11.87
2023-04-26T15:11:30.630Z,11.85
2023-04-26T15:13:57.448Z,11.82
2023-04-26T15:16:24.303Z,11.79
2023-04-26T15:18:51.151Z,11.78
2023-04-26T15:21:18.382Z,11.78
2023-04-26T15:23:45.315Z,11.78
2023-04-26T15:26:12.054Z,11.79
2023-04-26T15:28:38.923Z,11.80
2023-04-26T15:31:08.269Z,11.80
2023-04-26T15:33:35.863Z,11.80
2023-04-26T15:36:02.940Z,11.82
2023-04-26T15:38:30.160Z,11.84
2023-04-26T15:40:57.001Z,11.86
2023-04-26T15:43:23.908Z,11.87
2023-04-26T15:45:50.826Z,11.89
2023-04-26T15:48:18.462Z,11.90
2023-04-26T15:50:45.773Z,11.91
2023-04-26T15:53:13.152Z,11.92
2023-04-26T15:55:40.880Z,11.92
2023-04-26T15:58:07.587Z,11.93
2023-04-26T16:00:35.806Z,11.94
2023-04-26T16:03:02.707Z,11.95
2023-04-26T16:05:31.044Z,11.94
2023-04-26T16:07:59.052Z,11.94
2023-04-26T16:10:26.399Z,11.94
2023-04-26T16:12:53.203Z,11.93
2023-04-26T16:15:20.072Z,11.93
2023-04-26T16:17:47.023Z,11.93
2023-04-26T16:20:14.737Z,11.93
2023-04-26T16:22:44.003Z,11.93
2023-04-26T16:25:12.143Z,11.93
2023-04-26T16:27:39.229Z,11.93
2023-04-26T16:30:06.629Z,11.94
2023-04-26T16:32:33.858Z,11.96
2023-04-26T16:35:00.754Z,11.95
2023-04-26T16:37:27.743Z,11.96
2023-04-26T16:39:55.543Z,11.98
2023-04-26T16:42:22.448Z,11.99
2023-04-26T16:44:49.269Z,12.01
2023-04-26T16:47:15.958Z,12.02
2023-04-26T16:49:42.954Z,12.03
2023-04-26T16:52:09.766Z,12.03
2023-04-26T16:54:36.788Z,12.02
2023-04-26T16:57:03.997Z,12.01
2023-04-26T16:59:32.120Z,12.00
2023-04-26T17:01:58.848Z,11.99
2023-04-26T17:04:25.960Z,11.97
2023-04-26T17:06:54.071Z,11.95
2023-04-26T17:09:21.019Z,11.94
2023-04-26T17:11:49.277Z,11.93
2023-04-26T17:14:16.076Z,11.92
2023-04-26T17:16:42.930Z,11.92
2023-04-26T17:19:09.830Z,11.91
2023-04-26T17:21:36.802Z,11.91
2023-04-26T17:24:03.770Z,11.89
2023-04-26T17:26:30.725Z,11.88
2023-04-26T17:28:57.483Z,11.87
2023-04-26T17:31:24.425Z,11.87
2023-04-26T17:33:51.640Z,11.86
2023-04-26T17:36:18.928Z,11.86
2023-04-26T17:38:45.723Z,11.85
2023-04-26T17:41:13.063Z,11.83
2023-04-26T17:43:40.013Z,11.80
2023-04-26T17:46:07.537Z,11.78
2023-04-26T17:48:34.448Z,11.77
2023-04-26T17:51:01.293Z,11.76
2023-04-26T17:53:28.192Z,11.74
2023-04-26T17:55:55.052Z,11.71
2023-04-26T17:58:21.850Z,11.68
2023-04-26T18:00:49.117Z,11.66
2023-04-26T18:03:16.293Z,11.63
2023-04-26T18:05:43.102Z,11.61
2023-04-26T18:08:10.738Z,11.59
2023-04-26T18:10:37.664Z,11.56
2023-04-26T18:13:04.685Z,11.51
2023-04-26T18:15:31.981Z,11.49
2023-04-26T18:17:58.874Z,11.47
2023-04-26T18:20:26.479Z,11.45
2023-04-26T18:22:53.309Z,11.42
2023-04-26T18:25:20.411Z,11.40
2023-04-26T18:27:47.535Z,11.39
2023-04-26T18:30:14.604Z,11.38
2023-04-26T18:32:42.246Z,11.37
2023-04-26T18:35:09.546Z,11.35
2023-04-26T18:37:37.312Z,11.33
2023-04-26T18:40:04.794Z,11.33
2023-04-26T18:42:31.636Z,11.32
2023-04-26T18:45:00.409Z,11.30
2023-04-26T18:47:27.160Z,11.29
2023-04-26T18:49:53.932Z,11.27
2023-04-26T18:52:20.978Z,11.26
2023-04-26T18:54:47.826Z,11.25
2023-04-26T18:57:17.424Z,11.24
2023-04-26T18:59:44.263Z,11.23
2023-04-26T19:02:11.183Z,11.23
2023-04-26T19:04:38.463Z,11.22
2023-04-26T19:07:05.831Z,11.21
2023-04-26T19:09:42.833Z,11.20
2023-04-26T19:12:17.910Z,11.19
2023-04-26T19:14:44.760Z,11.19
2023-04-26T19:17:11.653Z,11.19
2023-04-26T19:19:38.641Z,11.20
2023-04-26T19:22:05.460Z,11.21
2023-04-26T19:24:32.576Z,11.21
2023-04-26T19:27:00.282Z,11.21
2023-04-26T19:29:27.294Z,11.21
2023-04-26T19:31:54.070Z,11.21
2023-04-26T19:34:21.821Z,11.21
2023-04-26T19:36:48.661Z,11.21
2023-04-26T19:39:16.010Z,11.21
2023-04-26T19:41:42.928Z,11.20
2023-04-26T19:44:09.836Z,11.18
2023-04-26T19:46:37.281Z,11.17
2023-04-26T19:49:04.474Z,11.15
2023-04-26T19:51:31.698Z,11.14
2023-04-26T19:53:58.509Z,11.13
2023-04-26T19:56:25.787Z,11.11
2023-04-26T19:58:52.651Z,11.10
2023-04-26T20:01:19.422Z,11.07
2023-04-26T20:03:46.552Z,11.05
2023-04-26T20:06:14.348Z,11.05
2023-04-26T20:08:41.285Z,11.05
2023-04-26T20:11:14.080Z,11.03
2023-04-26T20:13:42.070Z,11.02
2023-04-26T20:16:09.571Z,11.01
2023-04-26T20:18:36.666Z,11.01
2023-04-26T20:21:04.471Z,11.01
2023-04-26T20:23:32.030Z,11.00
2023-04-26T20:25:58.830Z,10.99
2023-04-26T20:28:26.312Z,10.98
2023-04-26T20:30:53.108Z,10.98
2023-04-26T20:33:20.827Z,10.97
2023-04-26T20:35:47.627Z,10.98
2023-04-26T20:38:14.751Z,10.99
2023-04-26T20:40:41.474Z,11.00
2023-04-26T20:43:08.416Z,11.00
2023-04-26T20:45:35.276Z,10.99
2023-04-26T20:48:02.267Z,10.99
2023-04-26T20:50:29.316Z,10.98
2023-04-26T20:52:56.488Z,10.98
2023-04-26T20:55:23.369Z,10.98
2023-04-26T20:57:50.172Z,10.97
2023-04-26T21:00:17.388Z,10.98
2023-04-26T21:02:44.513Z,10.98
2023-04-26T21:05:11.329Z,10.99
2023-04-26T21:07:38.353Z,11.00
2023-04-26T21:10:05.620Z,11.02
2023-04-26T21:12:34.004Z,11.03
2023-04-26T21:15:01.013Z,11.04
2023-04-26T21:17:27.970Z,11.04
2023-04-26T21:19:54.972Z,11.05
2023-04-26T21:22:21.702Z,11.04
2023-04-26T21:24:50.940Z,11.06
2023-04-26T21:27:18.155Z,11.06
2023-04-26T21:29:45.077Z,11.08
2023-04-26T21:32:11.992Z,11.10
2023-04-26T21:34:38.696Z,11.11
2023-04-26T21:37:05.785Z,11.11
2023-04-26T21:39:32.846Z,11.12
2023-04-26T21:41:59.614Z,11.11
2023-04-26T21:44:26.306Z,11.11
2023-04-26T21:46:53.134Z,11.10
2023-04-26T21:49:20.109Z,11.10
2023-04-26T21:51:46.910Z,11.10
2023-04-26T21:54:13.715Z,11.11
2023-04-26T21:56:40.745Z,11.11
2023-04-26T21:59:09.624Z,11.05
2023-04-26T22:01:36.895Z,10.93
2023-04-26T22:04:03.972Z,10.81
2023-04-26T22:06:31.324Z,10.69
2023-04-26T22:08:58.541Z,10.59
2023-04-26T22:11:25.502Z,10.47
2023-04-26T22:13:57.527Z,10.37
2023-04-26T22:16:24.431Z,10.33
2023-04-26T22:18:51.326Z,10.25
2023-04-26T22:21:18.386Z,10.16
2023-04-26T22:23:45.354Z,10.10
2023-04-26T22:26:12.178Z,10.04
2023-04-26T22:28:39.040Z,9.93
2023-04-26T22:31:05.893Z,9.81
2023-04-26T22:33:33.633Z,9.71
2023-04-26T22:36:00.848Z,9.61
2023-04-26T22:38:27.702Z,9.50
2023-04-26T22:40:54.971Z,9.42
2023-04-26T22:43:24.226Z,9.35
2023-04-26T22:45:51.248Z,9.28
2023-04-26T22:48:18.076Z,9.22
2023-04-26T22:50:48.236Z,9.15
2023-04-26T22:53:15.048Z,9.08
2023-04-26T22:55:42.515Z,8.99
2023-04-26T22:58:09.823Z,8.91
2023-04-26T23:00:37.028Z,8.83
2023-04-26T23:03:04.242Z,8.71
2023-04-26T23:05:32.277Z,8.60
2023-04-26T23:07:59.183Z,8.51
2023-04-26T23:10:26.739Z,8.46
2023-04-26T23:12:54.813Z,8.39
2023-04-26T23:15:21.898Z,8.31
2023-04-26T23:17:48.936Z,8.20
2023-04-26T23:20:15.904Z,8.06
2023-04-26T23:22:43.109Z,7.94
2023-04-26T23:25:10.151Z,7.85
2023-04-26T23:27:37.070Z,7.75
2023-04-26T23:30:04.562Z,7.67
2023-04-26T23:32:31.936Z,7.60
2023-04-26T23:34:58.789Z,7.53
2023-04-26T23:37:25.727Z,7.47
2023-04-26T23:39:52.622Z,7.42
2023-04-26T23:42:19.434Z,7.38
2023-04-26T23:44:46.278Z,7.36
2023-04-26T23:47:13.020Z,7.34
2023-04-26T23:49:40.026Z,7.32
2023-04-26T23:52:06.852Z,7.29
2023-04-26T23:54:33.821Z,7.27
2023-04-26T23:57:00.650Z,7.24
2023-04-26T23:59:27.505Z,7.21
